METAR Data
IDs: Format: Raw Decoded Include TAF

Data at: 1932 UTC 14 Dec 2018

KGGG 141853Z 31013G22KT 10SM OVC009 09/09 A2980 RMK AO2 SLP091 T00940089 $
KGGG 141753Z 33016G24KT 8SM OVC008 09/09 A2980 RMK AO2 RAE07B24E48 SLP093 P0001 60027 T00940089 10094 20089 50007 $
KGGG 141653Z 32014KT 10SM -RA OVC006 09/09 A2981 RMK AO2 SLP096 P0003 T00940094 $
KGGG 141553Z 31015G20KT 3SM -RA BR OVC005 09/09 A2979 RMK AO2 CIG 004V008 SLP089 P0003 T00940094 $
KGGG 141453Z 30013KT 3SM -RA BR BKN006 OVC038 09/09 A2978 RMK AO2 SLP085 P0008 60020 T00940094 52017 $
KGGG 141353Z 30012KT 2SM RA BR BKN006 OVC027 09/09 A2977 RMK AO2 TSE23 SLP081 P0008 T00940094 $
KGGG 141323Z 27006KT 2SM RA BR OVC005 09/09 A2976 RMK AO2 LTG DSNT NE TSE23 P0002 T00940094 $
KGGG 141253Z 18008KT 3SM -TSRA BR OVC002 09/09 A2975 RMK AO2 LTG DSNT NE AND E RAB1154 PRESRR SLP072 P0004 T00890089 $
KGGG 141153Z VRB03KT 3SM TS BR OVC002 09/09 A2973 RMK AO2 LTG DSNT NE-SE TSB51 PRESRR SLP067 70040 T00890089 10094 20083 55004 $
KGGG 141053Z AUTO 30010KT 8SM OVC003 09/09 A2971 RMK AO2 LTG DSNT E AND SE SLP061 T00890089 $
KGGG 140953Z AUTO 30009KT 10SM OVC003 09/09 A2973 RMK AO2 SLP065 T00940094 $
KGGG 140925Z AUTO 28008KT 8SM OVC003 09/09 A2973 RMK AO2 LTG DSNT N T00940094 $
KGGG 140853Z AUTO 25005KT 10SM OVC006 09/09 A2974 RMK AO2 LTG DSNT NE AND E TSB13E28 SLP071 T00940094 51009 $
KGGG 140843Z AUTO 23007KT 10SM OVC006 09/09 A2974 RMK AO2 LTG DSNT NE AND E TSB13E28 T00940094 $
KGGG 140834Z AUTO 23006KT 10SM VCTS OVC006 09/09 A2975 RMK AO2 LTG DSNT E TSB13E28 T00940094 $
KGGG 140819Z AUTO 20006KT 10SM TS OVC006 09/09 A2975 RMK AO2 LTG DSNT E TSB13 T00940094 $
KGGG 140810Z AUTO 24005KT 10SM VCTS OVC005 09/09 A2975 RMK AO2 LTG DSNT NE AND SE T00940094 $
KGGG 140753Z AUTO 27004KT 10SM OVC005 09/09 A2974 RMK AO2 LTG DSNT SE SLP069 T00940094 $
KGGG 140653Z AUTO 28003KT 10SM OVC004 09/09 A2975 RMK AO2 SLP072 T00940094 $
KGGG 140616Z AUTO 28009KT 10SM BKN004 09/09 A2973 RMK AO2 T00940094 $
KGGG 140607Z AUTO 27006KT 10SM SCT006 09/09 A2973 RMK AO2 T00940094 $
KGGG 140553Z AUTO 29006KT 10SM CLR 08/08 A2972 RMK AO2 SLP062 60003 T00830083 10156 20083 401670083 50001 $
KGGG 140453Z AUTO 00000KT 10SM CLR 09/09 A2973 RMK AO2 SLP068 T00890089 $
KGGG 140353Z AUTO 28004KT 10SM CLR 10/09 A2973 RMK AO2 SLP066 T01000089 $
KGGG 140253Z 29012KT 10SM CLR 12/10 A2971 RMK AO2 SLP060 60003 T01220100 51014
KGGG 140153Z 27004KT 10SM FEW043 14/13 A2970 RMK AO2 SLP057 T01390133
KGGG 140053Z 22005KT 6SM BR SCT010 BKN060 OVC075 15/15 A2970 RMK AO2 RAB01E53 SLP056 P0003 T01500150
KGGG 140044Z 18004KT 6SM -RA BR SCT010 BKN060 OVC075 15/15 A2970 RMK AO2 RAB01 P0003 T01500150
KGGG 140015Z 00000KT 10SM -RA BKN005 BKN028 OVC060 16/16 A2970 RMK AO2 RAB01 P0000 T01560156
KGGG 132353Z 11003KT 3SM BR OVC003 16/16 A2967 RMK AO2 LTG DSNT E AND SE AND W CIG 003V006 SLP046 60012 T01560156 10167 20156 53004
KGGG 132313Z 10004KT 3SM BR OVC004 16/16 A2966 RMK AO2 LTG DSNT SE AND SW CIG 003V008 T01560156
KGGG 132253Z COR 11004KT 4SM BR BKN006 OVC010 16/16 A2966 RMK AO2 CIG 003V008 SLP042 T01560156
KGGG 132153Z 10003KT 8SM OVC007 16/16 A2966 RMK AO2 RAE27 SLP042 P0001 T01560156
KGGG 132128Z 11005KT 4SM BR BKN003 OVC013 16/16 A2966 RMK AO2 RAE27 P0001 T01560156
KGGG 132114Z COR 12006KT 4SM -RA BR BKN013 OVC017 16/16 A2966 RMK AO2 P0001 T01560156
KGGG 132053Z COR 13006KT 4SM -RA BR SCT006 OVC018 16/16 A2966 RMK AO2 SLP042 P0010 60011 T01560156 56018
KGGG 132016Z 12007KT 5SM -RA BR BKN023 BKN030 OVC075 16/15 A2966 RMK AO2 P0009 T01560150
KGGG 131953Z 14008KT 2SM RA BR BKN033 OVC050 16/14 A2966 RMK AO2 RAB40 SLP041 P0001 T01610144
KGGG 131900Z 14010KT 10SM FEW007 BKN050 OVC070 17/16 A2967 RMK AO2 T01670156
KGGG 131853Z 14010KT 10SM BKN011 BKN090 17/16 A2968 RMK AO2 RAB11E34 SLP047 P0000 T01670161
KGGG 131753Z 15012KT 10SM BKN011 BKN090 16/16 A2971 RMK AO2 PK WND 13027/1715 RAE39 SLP058 P0005 60025 T01560156 10167 20150 58023
KGGG 131653Z 13017G24KT 10SM RA BKN070 15/15 A2976 RMK AO2 PRESFR SLP074 P0008 T01500150
KGGG 131553Z 14015G23KT 10SM -RA FEW010 OVC085 15/15 A2976 RMK AO2 SLP075 P0005 T01500150
KGGG 131453Z 16013KT 10SM -RA SCT010 OVC100 15/15 A2978 RMK AO2 SLP083 P0004 60007 T01500150 53005
KGGG 131412Z 15011KT 10SM -RA FEW009 SCT070 OVC085 15/15 A2978 RMK AO2 P0001 T01500150
KGGG 131353Z 15014G19KT 10SM -RA BKN011 BKN048 OVC095 15/15 A2977 RMK AO2 RAE1258B48 SLP078 P0000 T01500150
KGGG 131333Z 14011KT 10SM BKN011 OVC080 15/15 A2977 RMK AO2 LTG DSNT W AND NW RAE1258 CIG 006V014 P0000 T01500150
KGGG 131253Z 15013KT 10SM -RA FEW008 BKN090 OVC110 15/15 A2976 RMK AO2 PK WND 15034/1201 SLP077 P0003 T01500150
KGGG 131211Z 16020G30KT 10SM -RA OVC090 15/15 A2975 RMK AO2 PK WND 15034/1201 LTG DSNT NE AND E P0002 T01500150
KGGG 131153Z 15024G31KT 10SM VCTS RA FEW011 SCT046 OVC085 15/15 A2975 RMK AO2 PK WND 16031/1151 LTG DSNT NE AND E RAB08 TSB13E41 SLP074 P0009 60009 70009 T01500150 10161 20144 56021
KGGG 131134Z AUTO 15015KT 10SM TSRA SCT011 BKN035 OVC050 14/14 A2976 RMK AO2 LTG DSNT ALQDS RAB08 TSB13 P0005 T01440144
KGGG 131124Z AUTO 16010KT 10SM -TSRA BKN011 BKN017 OVC033 14/14 A2977 RMK AO2 LTG DSNT E-SW RAB08 TSB13 CIG 008V014 P0001 T01440144
KGGG 131119Z AUTO 16009KT 10SM -TSRA SCT013 OVC035 14/14 A2977 RMK AO2 LTG DSNT E-SW RAB08 TSB13 P0001 T01440144
KGGG 131111Z AUTO 15010KT 10SM VCTS -RA FEW011 OVC035 14/14 A2977 RMK AO2 LTG DSNT SE-SW RAB08 P0000 T01440144
KGGG 131053Z AUTO 15009KT 10SM BKN033 BKN046 OVC060 14/14 A2976 RMK AO2 LTG DSNT SE-SW RAE37 SLP076 P0000 T01440144
KGGG 131020Z AUTO 14010KT 10SM -RA SCT032 BKN075 OVC100 14/14 A2976 RMK AO2 LTG DSNT S P0000 T01440144
KGGG 130953Z AUTO 15008KT 10SM VCTS -RA BKN030 BKN047 OVC110 15/14 A2978 RMK AO2 LTG DSNT N AND S AND SW RAB12E21B52 SLP081 P0000 T01500139
KGGG 130853Z AUTO 14008KT 10SM OVC032 16/14 A2982 RMK AO2 SLP095 T01560139 56017
KGGG 130838Z AUTO 14007KT 10SM OVC030 16/14 A2983 RMK AO2 T01560139
KGGG 130753Z AUTO 14007KT 10SM FEW020 OVC027 16/14 A2983 RMK AO2 SLP101 T01560139